Time;durP1;ratioP1;P1;durP2;ratioP2;P2;SDS_P1;SDS_P2;PMS_P1;PMS_P2;Temp;Humidity;BMP_temperature;BMP_pressure;BME280_temperature;BME280_humidity;BME280_pressure;Samples;Min_cycle;Max_cycle;Signal;HPM_P1;HPM_P2
2022/06/26 00:02:13;;;;;;;9.13;7.57;;;;;;;21.84;58.56;101120.16;4898679;28;120182;-70
2022/06/26 00:04:40;;;;;;;10.10;7.72;;;;;;;21.84;58.72;101122.88;4904258;28;119357;-69
2022/06/26 00:07:08;;;;;;;9.68;8.48;;;;;;;21.83;58.85;101134.66;4898610;28;123874;-70
2022/06/26 00:09:35;;;;;;;9.18;7.55;;;;;;;21.84;58.92;101139.03;4900467;28;124619;-69
2022/06/26 00:12:03;;;;;;;9.32;7.88;;;;;;;21.83;59.14;101148.16;4891617;28;120058;-70
2022/06/26 00:14:30;;;;;;;11.10;8.23;;;;;;;21.83;59.08;101148.16;4890746;28;120126;-70
2022/06/26 00:16:57;;;;;;;9.52;7.55;;;;;;;21.82;59.11;101140.19;4896354;28;123869;-69
2022/06/26 00:19:24;;;;;;;9.20;7.68;;;;;;;21.81;59.16;101139.31;4898520;28;123860;-69
2022/06/26 00:21:51;;;;;;;9.77;7.57;;;;;;;21.81;59.23;101144.69;4899884;28;119389;-70
2022/06/26 00:24:19;;;;;;;9.98;7.70;;;;;;;21.82;59.36;101157.22;4908698;28;118633;-69
2022/06/26 00:26:46;;;;;;;9.00;7.57;;;;;;;21.82;59.28;101154.50;4899074;28;124291;-70
2022/06/26 00:29:13;;;;;;;9.55;8.25;;;;;;;21.84;59.39;101149.00;4898007;28;123453;-70
2022/06/26 00:31:42;;;;;;;9.18;7.60;;;;;;;21.84;59.39;101143.59;4907049;28;118490;-70
2022/06/26 00:34:10;;;;;;;10.23;7.78;;;;;;;21.82;59.48;101146.41;4902473;28;118965;-69
2022/06/26 00:36:37;;;;;;;9.77;7.30;;;;;;;21.80;59.34;101137.63;4902712;28;124061;-69
2022/06/26 00:39:04;;;;;;;11.82;7.82;;;;;;;21.76;59.27;101136.19;4891928;28;124895;-69
2022/06/26 00:41:31;;;;;;;9.43;7.50;;;;;;;21.75;59.72;101145.25;4895498;28;118158;-70
2022/06/26 00:43:58;;;;;;;9.23;7.75;;;;;;;21.75;59.64;101153.34;4895593;28;119107;-69
2022/06/26 00:46:26;;;;;;;10.50;7.75;;;;;;;21.74;59.66;101148.94;4897112;28;124090;-69
2022/06/26 00:48:53;;;;;;;10.35;7.78;;;;;;;21.73;59.62;101144.53;4898722;28;123719;-69
2022/06/26 00:51:21;;;;;;;11.07;7.68;;;;;;;21.70;59.69;101147.47;4895208;28;119291;-69
2022/06/26 00:53:48;;;;;;;10.00;8.45;;;;;;;21.68;59.77;101138.69;4890529;28;118262;-68
2022/06/26 00:56:15;;;;;;;10.65;7.97;;;;;;;21.67;59.92;101148.63;4889388;28;124022;-68
2022/06/26 00:58:42;;;;;;;9.77;8.05;;;;;;;21.68;59.88;101146.75;4920737;28;123049;-68
2022/06/26 01:01:10;;;;;;;10.57;7.65;;;;;;;21.68;59.85;101160.25;4900332;28;120738;-68
2022/06/26 01:03:37;;;;;;;11.00;8.45;;;;;;;21.68;59.88;101157.53;4898432;28;119965;-68
2022/06/26 01:06:08;;;;;;;11.07;8.40;;;;;;;21.67;60.10;101153.16;4903411;28;123046;-68
2022/06/26 01:08:36;;;;;;;10.90;9.02;;;;;;;21.68;59.98;101154.84;4900131;28;124343;-68
2022/06/26 01:11:17;;;;;;;9.55;8.00;;;;;;;21.68;59.88;101161.13;4893899;28;119198;-68
2022/06/26 01:13:46;;;;;;;10.77;8.27;;;;;;;21.68;59.97;101157.53;4896542;28;119137;-68
2022/06/26 01:16:16;;;;;;;9.02;7.95;;;;;;;21.67;59.97;101163.94;4907316;28;123647;-69
2022/06/26 01:18:46;;;;;;;10.98;8.40;;;;;;;21.68;60.03;101154.84;4902299;28;123616;-69
2022/06/26 01:21:17;;;;;;;9.60;8.27;;;;;;;21.68;60.02;101160.25;4899728;28;118213;-69
2022/06/26 01:23:46;;;;;;;9.80;8.48;;;;;;;21.68;60.02;101166.50;4896766;28;120028;-68
2022/06/26 01:26:15;;;;;;;11.88;9.10;;;;;;;21.68;60.06;101161.13;4905635;28;123865;-68
2022/06/26 01:28:43;;;;;;;10.52;8.40;;;;;;;21.69;60.09;101162.81;4898334;28;123432;-69
2022/06/26 01:31:11;;;;;;;12.10;8.90;;;;;;;21.68;60.09;101166.50;4915887;28;119695;-69
2022/06/26 01:33:39;;;;;;;13.02;9.13;;;;;;;21.67;59.93;101166.63;4905426;28;96990;-68
2022/06/26 01:36:06;;;;;;;10.88;8.75;;;;;;;21.68;59.95;101176.41;4899382;28;122169;-69
2022/06/26 01:38:36;;;;;;;10.43;8.55;;;;;;;21.67;59.77;101180.97;4905758;28;123534;-68
2022/06/26 01:41:03;;;;;;;11.07;9.00;;;;;;;21.67;59.85;101185.50;4907643;28;118525;-68
2022/06/26 01:43:33;;;;;;;10.85;8.57;;;;;;;21.65;59.91;101182.09;4906706;28;118206;-68
2022/06/26 01:46:01;;;;;;;10.10;7.97;;;;;;;21.65;59.88;101184.78;4896723;28;123050;-69
2022/06/26 01:48:37;;;;;;;13.25;8.93;;;;;;;21.62;59.78;101185.03;4901034;28;123060;-69
2022/06/26 01:51:07;;;;;;;10.57;8.90;;;;;;;21.59;59.78;101183.47;4904380;28;119284;-69
2022/06/26 01:53:36;;;;;;;10.82;8.70;;;;;;;21.55;59.86;101182.88;4920987;28;118963;-69
2022/06/26 01:56:04;;;;;;;11.68;8.80;;;;;;;21.53;59.95;101184.88;4901876;28;123504;-69
2022/06/26 01:58:38;;;;;;;10.88;8.50;;;;;;;21.50;59.79;101182.41;4921789;28;126791;-69
2022/06/26 02:01:08;;;;;;;9.30;8.20;;;;;;;21.46;59.98;101183.69;4922056;28;119100;-69
2022/06/26 02:03:36;;;;;;;10.82;8.70;;;;;;;21.43;60.05;101178.50;4918752;28;117986;-69
2022/06/26 02:06:03;;;;;;;9.90;8.30;;;;;;;21.39;60.11;101171.69;4921456;28;123212;-69
2022/06/26 02:08:31;;;;;;;10.05;8.20;;;;;;;21.34;60.15;101168.50;4899133;28;124045;-69
2022/06/26 02:13:45;;;;;;;10.52;8.13;;;;;;;21.25;60.21;101174.69;4898594;28;119153;-69
2022/06/26 02:16:15;;;;;;;11.52;9.23;;;;;;;21.20;60.30;101162.47;4905353;28;123208;-68
2022/06/26 02:18:46;;;;;;;11.57;8.05;;;;;;;21.19;60.16;101160.78;4919044;28;122993;-69
2022/06/26 02:21:15;;;;;;;11.75;8.63;;;;;;;21.17;60.09;101168.13;4901995;28;118616;-68
2022/06/26 02:23:44;;;;;;;11.48;8.27;;;;;;;21.16;60.35;101165.56;4893979;28;119738;-68
2022/06/26 02:26:12;;;;;;;11.80;8.85;;;;;;;21.13;60.26;101172.03;4907352;28;123287;-68
2022/06/26 02:28:40;;;;;;;11.48;8.68;;;;;;;21.11;60.38;101174.00;4919354;28;123785;-68
2022/06/26 02:31:07;;;;;;;13.05;9.65;;;;;;;21.09;60.53;101181.38;4908815;28;118224;-68
2022/06/26 02:33:35;;;;;;;11.07;8.75;;;;;;;21.08;60.49;101174.28;4922773;28;118221;-68
2022/06/26 02:36:04;;;;;;;12.32;9.18;;;;;;;21.07;60.64;101179.81;4899257;28;124031;-68
2022/06/26 02:38:32;;;;;;;11.15;9.10;;;;;;;21.06;60.63;101176.25;4897696;28;124204;-68
2022/06/26 02:41:02;;;;;;;13.30;9.88;;;;;;;21.05;60.46;101169.16;4913766;28;119454;-68
2022/06/26 02:43:29;;;;;;;13.77;10.00;;;;;;;21.04;60.75;101172.84;4901424;28;118838;-68
2022/06/26 02:45:57;;;;;;;14.45;10.02;;;;;;;21.04;60.87;101174.66;4899382;28;123073;-68
2022/06/26 02:48:25;;;;;;;14.05;10.88;;;;;;;21.03;61.11;101168.44;4897017;28;122683;-68
2022/06/26 02:50:53;;;;;;;12.65;9.70;;;;;;;21.01;60.91;101167.72;4904492;28;118651;-69
2022/06/26 02:53:20;;;;;;;14.10;10.13;;;;;;;21.03;61.09;101181.91;4893959;28;118094;-68
2022/06/26 02:55:49;;;;;;;15.50;10.80;;;;;;;21.03;60.99;101192.66;4905537;28;123517;-69
2022/06/26 02:58:17;;;;;;;14.77;10.75;;;;;;;21.02;61.14;101199.06;4904414;28;122947;-68
2022/06/26 03:00:59;;;;;;;15.25;11.10;;;;;;;20.99;61.16;101202.00;4900367;28;120210;-68
2022/06/26 03:03:26;;;;;;;14.15;10.48;;;;;;;20.98;61.17;101200.28;4915835;28;118411;-69
2022/06/26 03:05:54;;;;;;;15.25;10.98;;;;;;;20.98;61.21;101202.97;4919779;28;123181;-69
2022/06/26 03:08:24;;;;;;;17.20;12.27;;;;;;;20.97;61.12;101209.34;4904845;28;122263;-69
2022/06/26 03:10:51;;;;;;;17.08;11.75;;;;;;;20.96;61.21;101213.00;4907162;28;118206;-69
2022/06/26 03:13:19;;;;;;;17.00;12.35;;;;;;;20.95;61.17;101214.00;4902988;28;117784;-68
2022/06/26 03:15:46;;;;;;;17.52;11.57;;;;;;;20.94;61.10;101210.44;4893700;28;122971;-69
2022/06/26 03:18:16;;;;;;;14.48;10.93;;;;;;;20.97;61.14;101209.34;4899168;28;123013;-69
2022/06/26 03:20:44;;;;;;;15.60;11.57;;;;;;;20.98;61.38;101216.44;4906687;28;119384;-69
2022/06/26 03:23:12;;;;;;;15.30;11.63;;;;;;;21.00;61.26;101214.47;4905163;28;118107;-69
2022/06/26 03:25:39;;;;;;;16.52;11.30;;;;;;;21.02;61.20;101217.91;4895617;28;123787;-69
2022/06/26 03:28:06;;;;;;;14.35;11.38;;;;;;;21.03;61.14;101225.00;4892814;28;124108;-68
2022/06/26 03:30:41;;;;;;;16.88;11.68;;;;;;;21.03;61.34;101230.38;4906618;28;122796;-69
2022/06/26 03:33:08;;;;;;;17.38;12.45;;;;;;;21.04;61.16;101226.72;4905087;28;119049;-68
2022/06/26 03:35:35;;;;;;;15.77;11.90;;;;;;;21.03;61.20;101235.75;4906316;28;123300;-69
2022/06/26 03:38:06;;;;;;;17.55;11.70;;;;;;;21.02;61.33;101243.97;4892868;28;123024;-70
2022/06/26 03:40:34;;;;;;;15.45;12.05;;;;;;;21.02;61.20;101244.84;4909821;28;118510;-69
2022/06/26 03:43:04;;;;;;;16.02;12.10;;;;;;;21.00;61.21;101247.66;4896863;28;118111;-68
2022/06/26 03:45:46;;;;;;;17.95;12.85;;;;;;;20.99;61.20;101255.84;4910235;28;123111;-69
2022/06/26 03:48:13;;;;;;;17.35;12.13;;;;;;;20.97;61.03;101263.22;4896909;28;123879;-69
2022/06/26 03:50:40;;;;;;;16.73;12.30;;;;;;;20.96;61.06;101266.88;4906702;28;119293;-69
2022/06/26 03:53:08;;;;;;;15.50;11.60;;;;;;;20.92;61.09;101270.81;4899620;28;119793;-69
2022/06/26 03:55:35;;;;;;;15.90;10.93;;;;;;;20.90;61.06;101272.75;4898701;28;124159;-68
2022/06/26 03:58:03;;;;;;;15.73;11.60;;;;;;;20.87;61.12;101283.78;4905515;28;122986;-69
2022/06/26 04:00:33;;;;;;;13.15;9.90;;;;;;;20.83;60.89;101287.69;4909690;28;118697;-69
2022/06/26 04:03:05;;;;;;;15.15;9.68;;;;;;;20.78;60.80;101297.00;4899740;28;119370;-69
2022/06/26 04:05:34;;;;;;;12.75;9.18;;;;;;;20.72;60.42;101297.53;4898352;28;123717;-69
2022/06/26 04:08:01;;;;;;;12.23;8.50;;;;;;;20.68;60.58;101301.44;4905579;28;124256;-69
2022/06/26 04:10:40;;;;;;;11.65;8.65;;;;;;;20.64;60.54;101294.56;4896778;28;118284;-69
2022/06/26 04:13:23;;;;;;;12.98;8.82;;;;;;;20.60;60.57;101293.13;4898274;28;119893;-69
2022/06/26 04:15:50;;;;;;;15.50;9.30;;;;;;;20.58;60.53;101292.34;4902953;28;124423;-69
2022/06/26 04:18:17;;;;;;;13.98;9.68;;;;;;;20.56;60.43;101299.69;4908164;28;122907;-69
2022/06/26 04:20:45;;;;;;;15.27;9.60;;;;;;;20.59;60.52;101296.78;4897889;28;119032;-68
2022/06/26 04:23:13;;;;;;;14.75;9.85;;;;;;;20.58;60.49;101290.50;4897161;28;119928;-68
2022/06/26 04:25:42;;;;;;;14.77;9.90;;;;;;;20.58;60.26;101295.03;4903940;28;123693;-68
2022/06/26 04:28:09;;;;;;;13.52;9.55;;;;;;;20.54;60.41;101282.81;4896661;28;124022;-69
2022/06/26 04:30:39;;;;;;;14.57;10.00;;;;;;;20.53;60.47;101286.47;4906581;28;118460;-68
2022/06/26 04:33:07;;;;;;;13.68;9.70;;;;;;;20.50;60.27;101289.44;4901145;28;119702;-68
2022/06/26 04:35:35;;;;;;;13.48;9.02;;;;;;;20.50;60.27;101292.13;4906794;28;123210;-68
2022/06/26 04:38:03;;;;;;;13.68;9.13;;;;;;;20.48;60.31;101294.09;4908294;28;122908;-69
2022/06/26 04:40:31;;;;;;;14.15;8.85;;;;;;;20.47;60.38;101303.13;4902199;28;119433;-69
2022/06/26 04:42:58;;;;;;;13.23;8.95;;;;;;;20.46;60.31;101301.41;4921436;28;119399;-69
2022/06/26 04:45:26;;;;;;;11.85;8.57;;;;;;;20.46;60.43;101296.03;4905630;28;123740;-68
2022/06/26 04:47:57;;;;;;;16.13;8.73;;;;;;;20.48;60.37;101304.84;4901632;28;123773;-69
2022/06/26 04:50:24;;;;;;;13.77;8.27;;;;;;;20.48;60.54;101311.06;4908249;28;118801;-68
2022/06/26 04:52:53;;;;;;;13.50;7.93;;;;;;;20.50;60.51;101319.03;4900402;28;118307;-69
2022/06/26 04:55:26;;;;;;;13.07;7.70;;;;;;;20.49;60.25;101333.44;4906151;28;123718;-68
2022/06/26 04:57:54;;;;;;;13.27;7.72;;;;;;;20.48;60.39;101326.38;4903410;28;123596;-69
2022/06/26 05:00:21;;;;;;;10.73;7.22;;;;;;;20.48;60.15;101327.22;4901079;28;119372;-68
2022/06/26 05:02:55;;;;;;;12.00;7.50;;;;;;;20.49;60.12;101325.38;4897438;28;119259;-68
2022/06/26 05:05:55;;;;;;;13.18;7.65;;;;;;;20.50;60.00;101335.19;4896576;28;124393;-68
2022/06/26 05:08:36;;;;;;;10.15;7.00;;;;;;;20.50;60.23;101340.56;4903921;28;123404;-69
2022/06/26 05:11:04;;;;;;;9.55;6.85;;;;;;;20.51;60.30;101336.88;4901345;28;121019;-68
2022/06/26 05:13:34;;;;;;;13.57;6.88;;;;;;;20.56;60.35;101342.75;4891673;28;119086;-68
2022/06/26 05:16:33;;;;;;;12.02;6.68;;;;;;;20.59;60.08;101350.59;4889964;28;124223;-68
2022/06/26 05:19:02;;;;;;;9.80;6.10;;;;;;;20.59;59.94;101339.84;4891732;28;122957;-68
2022/06/26 05:21:31;;;;;;;9.52;6.30;;;;;;;20.58;60.02;101348.88;4894040;28;118557;-68
2022/06/26 05:23:58;;;;;;;9.15;6.10;;;;;;;20.58;59.86;101346.19;4894353;28;119269;-69
2022/06/26 05:26:27;;;;;;;11.15;6.53;;;;;;;20.56;59.92;101356.22;4919809;28;123780;-69
2022/06/26 05:28:55;;;;;;;10.73;6.90;;;;;;;20.56;59.88;101350.81;4895884;28;123955;-69
2022/06/26 05:31:22;;;;;;;9.00;6.28;;;;;;;20.60;59.90;101353.16;4907654;28;118479;-69
2022/06/26 05:33:49;;;;;;;7.93;5.63;;;;;;;20.62;59.66;101342.28;4890359;28;118130;-68
2022/06/26 05:36:17;;;;;;;10.30;5.68;;;;;;;20.65;59.97;101322.38;4907654;28;123468;-68
2022/06/26 05:38:44;;;;;;;8.60;5.53;;;;;;;20.70;59.86;101334.47;4895577;28;122835;-68
2022/06/26 05:41:11;;;;;;;11.30;6.15;;;;;;;20.71;59.65;101333.47;4893592;28;119670;-68
2022/06/26 05:43:39;;;;;;;9.90;6.35;;;;;;;20.73;59.52;101341.44;4904496;28;118724;-68
2022/06/26 05:46:10;;;;;;;10.10;5.97;;;;;;;20.73;59.54;101353.06;4906047;28;123846;-68
2022/06/26 05:48:49;;;;;;;10.57;6.05;;;;;;;20.74;59.48;101360.16;4895544;28;124670;-68
2022/06/26 05:51:39;;;;;;;9.20;5.63;;;;;;;20.73;59.37;101353.06;4870678;28;120084;-68
2022/06/26 05:54:17;;;;;;;10.35;5.63;;;;;;;20.73;59.33;101369.22;4907724;28;117930;-68
2022/06/26 05:57:04;;;;;;;9.30;5.72;;;;;;;20.73;59.21;101379.97;4902123;28;125341;-68
2022/06/26 05:59:39;;;;;;;8.50;5.68;;;;;;;20.74;59.18;101375.47;4906076;28;123626;-68
2022/06/26 06:02:36;;;;;;;8.50;5.45;;;;;;;20.74;59.29;101370.94;4896519;28;120756;-68
2022/06/26 06:05:04;;;;;;;8.43;5.45;;;;;;;20.77;59.35;101370.66;4916574;28;119238;-67
2022/06/26 06:07:32;;;;;;;8.55;5.90;;;;;;;20.84;59.42;101375.59;4906780;28;125086;-67
2022/06/26 06:10:00;;;;;;;8.52;5.70;;;;;;;20.92;59.35;101391.97;4900197;28;122888;-68
2022/06/26 06:12:29;;;;;;;9.20;5.40;;;;;;;20.98;59.27;101394.16;4888566;28;118879;-68
2022/06/26 06:14:56;;;;;;;8.18;5.35;;;;;;;21.06;59.19;101407.00;4902133;28;118099;-67
2022/06/26 06:17:35;;;;;;;9.55;5.15;;;;;;;21.11;59.11;101404.81;4907460;28;123529;-67
2022/06/26 06:20:19;;;;;;;8.93;5.45;;;;;;;21.13;58.81;101411.78;4907322;28;123407;-68
2022/06/26 06:23:01;;;;;;;9.38;5.50;;;;;;;21.18;59.01;101408.72;4898700;28;118969;-67
2022/06/26 06:25:29;;;;;;;9.95;5.45;;;;;;;21.26;58.91;101418.88;4898308;28;118062;-67
2022/06/26 06:28:01;;;;;;;8.57;5.38;;;;;;;21.33;58.72;101414.72;4917698;28;123800;-67
2022/06/26 06:30:31;;;;;;;8.10;4.80;;;;;;;21.41;58.45;101417.63;4899902;28;123311;-67
2022/06/26 06:32:58;;;;;;;7.43;5.03;;;;;;;21.49;58.37;101425.13;4906221;28;118937;-68
2022/06/26 06:35:31;;;;;;;12.90;4.85;;;;;;;21.62;58.37;101419.56;4907417;28;118126;-67
2022/06/26 06:38:01;;;;;;;9.32;4.68;;;;;;;21.72;58.13;101415.16;4905506;28;123175;-67
2022/06/26 06:40:30;;;;;;;8.88;4.82;;;;;;;21.81;57.76;101406.25;4907394;28;122891;-68
2022/06/26 06:43:00;;;;;;;9.63;4.97;;;;;;;21.90;57.67;101408.19;4907950;28;118528;-68
2022/06/26 06:45:51;;;;;;;9.50;5.15;;;;;;;22.01;57.70;101430.72;4912117;28;119180;-67
2022/06/26 06:48:24;;;;;;;7.18;4.80;;;;;;;22.09;57.47;101422.81;4910678;28;123328;-68
2022/06/26 06:51:13;;;;;;;8.13;5.07;;;;;;;22.18;57.17;101422.03;4904223;28;124452;-68
2022/06/26 06:53:41;;;;;;;7.78;4.90;;;;;;;22.29;57.26;101419.31;4911027;28;120390;-68
2022/06/26 06:56:09;;;;;;;8.02;4.50;;;;;;;22.44;57.10;101421.69;4909822;28;119324;-68
2022/06/26 06:58:37;;;;;;;8.43;4.95;;;;;;;22.57;56.90;101422.34;4915022;28;123360;-68
2022/06/26 07:01:07;;;;;;;6.65;4.43;;;;;;;22.72;56.48;101431.81;4910754;28;123154;-68
2022/06/26 07:03:34;;;;;;;7.72;4.65;;;;;;;22.86;56.04;101433.28;4890803;28;119825;-68
2022/06/26 07:06:02;;;;;;;7.15;4.55;;;;;;;23.00;55.90;101439.31;4904353;28;118585;-68
2022/06/26 07:08:33;;;;;;;7.75;4.45;;;;;;;23.16;55.80;101444.25;4895129;28;123278;-68
2022/06/26 07:11:00;;;;;;;7.50;4.55;;;;;;;23.30;55.38;101446.56;4911561;28;122873;-68
2022/06/26 07:13:27;;;;;;;6.70;4.15;;;;;;;23.43;55.30;101451.72;4910072;28;119665;-68
2022/06/26 07:15:54;;;;;;;5.63;3.80;;;;;;;23.57;54.80;101453.22;4912242;28;118850;-68
2022/06/26 07:18:24;;;;;;;6.13;3.60;;;;;;;23.70;55.06;101459.22;4900423;28;123207;-68
2022/06/26 07:20:55;;;;;;;7.10;3.70;;;;;;;23.87;54.95;101461.25;4895291;28;123491;-68
2022/06/26 07:23:22;;;;;;;7.68;3.90;;;;;;;24.03;54.46;101459.84;4895651;28;118366;-67
2022/06/26 07:26:05;;;;;;;8.65;3.70;;;;;;;24.16;53.70;101468.53;4907912;28;118841;-68
2022/06/26 07:28:37;;;;;;;7.55;3.35;;;;;;;24.21;53.20;101474.38;4896350;28;123088;-68
2022/06/26 07:31:04;;;;;;;6.03;3.78;;;;;;;24.28;53.10;101478.22;4906925;28;124008;-68
2022/06/26 07:36:20;;;;;;;6.15;3.25;;;;;;;24.47;53.01;101473.78;4910780;28;118175;-68
2022/06/26 07:38:48;;;;;;;5.55;3.28;;;;;;;24.58;52.56;101481.78;4916525;28;123665;-68
2022/06/26 07:41:15;;;;;;;5.00;3.42;;;;;;;24.66;52.27;101479.19;4910343;28;123084;-68
2022/06/26 07:43:42;;;;;;;7.57;3.63;;;;;;;24.72;52.12;101482.34;4910487;28;118972;-68
2022/06/26 07:46:09;;;;;;;6.95;3.40;;;;;;;24.76;52.03;101468.34;4910872;28;120924;-68
2022/06/26 07:48:37;;;;;;;6.72;3.20;;;;;;;24.80;51.68;101468.91;4909624;28;123618;-67
2022/06/26 07:51:05;;;;;;;6.82;3.38;;;;;;;24.86;51.32;101468.28;4908107;28;122885;-68
2022/06/26 07:53:33;;;;;;;5.15;2.95;;;;;;;24.89;50.68;101468.00;4883400;28;118503;-67
2022/06/26 07:56:00;;;;;;;7.00;2.60;;;;;;;24.88;50.58;101477.13;4894875;28;119477;-68
2022/06/26 07:58:27;;;;;;;3.85;2.33;;;;;;;24.85;50.55;101482.88;4889674;28;124840;-67
2022/06/26 08:00:54;;;;;;;4.78;3.05;;;;;;;24.85;50.22;101483.72;4890418;28;123518;-68
2022/06/26 08:03:22;;;;;;;6.25;3.10;;;;;;;24.86;50.27;101495.41;4896054;28;119296;-68
2022/06/26 08:05:49;;;;;;;5.35;2.97;;;;;;;24.84;50.06;101487.41;4899989;28;118226;-68
2022/06/26 08:08:16;;;;;;;6.47;2.70;;;;;;;24.81;50.53;101470.63;4908057;28;124701;-68
2022/06/26 08:10:43;;;;;;;5.85;2.40;;;;;;;24.82;50.28;101472.31;4897438;28;123690;-67
2022/06/26 08:13:11;;;;;;;5.05;2.88;;;;;;;24.86;50.30;101479.13;4910369;28;119117;-69
2022/06/26 08:15:38;;;;;;;5.43;3.05;;;;;;;24.86;49.86;101492.69;4908669;28;119073;-69
2022/06/26 08:18:07;;;;;;;4.45;2.78;;;;;;;24.85;50.22;101488.28;4887731;28;124118;-69
2022/06/26 08:20:34;;;;;;;4.78;2.75;;;;;;;24.81;50.17;101497.72;4892133;28;124178;-69
2022/06/26 08:23:01;;;;;;;5.28;3.00;;;;;;;24.79;49.93;101505.09;4903275;28;119296;-69
2022/06/26 08:25:28;;;;;;;5.68;2.90;;;;;;;24.77;50.20;101497.16;4891476;28;120581;-69
2022/06/26 08:27:56;;;;;;;3.70;2.72;;;;;;;24.81;49.93;101492.28;4906218;28;123294;-69
2022/06/26 08:30:23;;;;;;;5.00;2.70;;;;;;;24.82;50.19;101499.41;4892357;28;124151;-69
2022/06/26 08:32:51;;;;;;;5.13;3.00;;;;;;;24.82;50.12;101499.41;4904778;28;120177;-69
2022/06/26 08:35:18;;;;;;;4.57;3.00;;;;;;;24.80;49.82;101498.69;4907775;28;120209;-69
2022/06/26 08:37:46;;;;;;;5.18;2.70;;;;;;;24.75;49.78;101509.09;4906684;28;124101;-69
2022/06/26 08:40:13;;;;;;;5.00;2.85;;;;;;;24.73;49.64;101511.13;4900852;28;123726;-69
2022/06/26 08:42:41;;;;;;;4.68;3.00;;;;;;;24.71;49.76;101503.13;4892199;28;119108;-70
2022/06/26 08:45:09;;;;;;;4.82;2.92;;;;;;;24.70;50.12;101511.41;4900402;28;119467;-69
2022/06/26 08:47:39;;;;;;;4.85;3.00;;;;;;;24.70;50.02;101514.13;4905617;28;124419;-69
2022/06/26 08:50:08;;;;;;;5.00;2.80;;;;;;;24.70;49.77;101514.13;4910826;28;123811;-70
2022/06/26 08:52:36;;;;;;;5.63;2.78;;;;;;;24.72;49.96;101510.25;4909059;28;119793;-69
2022/06/26 08:55:04;;;;;;;4.47;2.50;;;;;;;24.76;49.40;101516.25;4910128;28;118989;-69
2022/06/26 08:57:33;;;;;;;4.53;2.42;;;;;;;24.77;49.55;101523.38;4908868;28;123689;-71
2022/06/26 09:00:01;;;;;;;5.75;2.45;;;;;;;24.78;49.91;101520.50;4904885;28;124562;-71
2022/06/26 09:02:28;;;;;;;3.42;2.50;;;;;;;24.82;49.92;101526.50;4900718;28;119153;-71
2022/06/26 09:04:56;;;;;;;4.35;3.13;;;;;;;24.84;49.53;101535.34;4908087;28;118688;-68
2022/06/26 09:07:23;;;;;;;5.70;3.00;;;;;;;24.81;49.44;101520.25;4900586;28;124406;-68
2022/06/26 09:09:50;;;;;;;4.63;2.83;;;;;;;24.80;49.28;101523.09;4906063;28;123976;-69
2022/06/26 09:12:18;;;;;;;5.82;3.40;;;;;;;24.79;49.58;101510.53;4907228;28;119620;-68
2022/06/26 09:14:51;;;;;;;5.00;3.17;;;;;;;24.80;49.97;101512.25;4910480;28;119322;-68
2022/06/26 09:17:22;;;;;;;4.95;2.80;;;;;;;24.81;49.49;101511.25;4908748;28;124525;-69
2022/06/26 09:19:51;;;;;;;5.75;2.60;;;;;;;24.82;49.51;101518.38;4902105;28;123928;-71
2022/06/26 09:22:18;;;;;;;4.88;3.20;;;;;;;24.83;49.32;101517.38;4901182;28;119293;-73
2022/06/26 09:24:54;;;;;;;5.97;3.05;;;;;;;24.85;49.55;101516.22;4905776;28;120074;-71
2022/06/26 09:27:22;;;;;;;4.45;2.50;;;;;;;24.87;49.41;101514.22;4900024;28;123828;-69
2022/06/26 09:29:51;;;;;;;3.65;2.03;;;;;;;24.91;49.00;101509.38;4908144;28;124676;-68
2022/06/26 09:32:21;;;;;;;4.70;2.10;;;;;;;24.91;49.26;101509.38;4908083;28;119500;-71
2022/06/26 09:34:51;;;;;;;4.05;1.92;;;;;;;24.90;48.54;101521.19;4909359;28;119563;-69
2022/06/26 09:37:20;;;;;;;2.55;1.80;;;;;;;24.90;48.86;101513.06;4910037;28;125074;-69
2022/06/26 09:40:08;;;;;;;3.50;2.10;;;;;;;24.88;48.41;101512.34;4925716;28;123125;-69
2022/06/26 09:42:35;;;;;;;3.30;2.17;;;;;;;24.83;48.84;101520.09;4908157;28;119389;-69
2022/06/26 09:45:08;;;;;;;6.35;2.58;;;;;;;24.82;48.96;101521.06;4909809;28;118128;-68
2022/06/26 09:47:35;;;;;;;5.93;2.60;;;;;;;24.80;48.84;101518.50;4906697;28;123839;-67
2022/06/26 09:50:06;;;;;;;4.45;2.50;;;;;;;24.79;48.59;101529.50;4909927;28;123771;-68
2022/06/26 09:52:33;;;;;;;3.78;2.22;;;;;;;24.74;48.63;101527.22;4894308;28;119380;-67
2022/06/26 09:55:03;;;;;;;3.88;2.03;;;;;;;24.71;48.78;101541.06;4888975;28;119048;-68
2022/06/26 09:57:32;;;;;;;3.38;2.28;;;;;;;24.68;48.86;101536.78;4902270;28;124132;-68
2022/06/26 10:00:00;;;;;;;3.53;2.15;;;;;;;24.68;48.73;101542.22;4909167;28;124186;-68
2022/06/26 10:08:04;;;;;;;4.10;1.90;;;;;;;24.64;48.35;101540.78;4891981;28;126775;-69
2022/06/26 10:10:36;;;;;;;4.18;2.08;;;;;;;24.62;48.18;101550.91;4918694;28;122736;-69
2022/06/26 10:13:06;;;;;;;5.32;2.22;;;;;;;24.60;48.32;101555.63;4895982;28;119802;-69
2022/06/26 10:15:40;;;;;;;5.00;2.20;;;;;;;24.58;48.39;101554.91;4903471;28;120169;-69
2022/06/26 10:18:49;;;;;;;2.80;1.98;;;;;;;24.57;48.55;101555.91;4919568;28;123004;-68
2022/06/26 10:21:16;;;;;;;5.25;1.80;;;;;;;24.57;48.49;101555.91;4903347;28;123795;-68
2022/06/26 10:23:43;;;;;;;3.25;2.30;;;;;;;24.54;48.48;101561.59;4898625;28;118206;-68
2022/06/26 10:26:19;;;;;;;4.15;2.47;;;;;;;24.52;48.67;101568.16;4898872;28;118961;-69
2022/06/26 10:29:00;;;;;;;3.42;2.40;;;;;;;24.50;48.71;101560.16;4898450;28;123900;-68
2022/06/26 10:31:50;;;;;;;4.72;2.10;;;;;;;24.48;48.46;101583.81;4906038;28;123953;-69
2022/06/26 10:34:20;;;;;;;3.95;1.80;;;;;;;24.44;48.49;101576.97;4892411;28;119070;-68
2022/06/26 10:37:10;;;;;;;3.50;1.83;;;;;;;24.40;48.42;101572.84;4896680;28;118517;-68
2022/06/26 10:39:42;;;;;;;4.43;2.05;;;;;;;24.37;48.47;101581.22;4901095;28;123974;-69
2022/06/26 10:45:07;;;;;;;4.30;2.08;;;;;;;24.40;49.18;101572.84;4896925;28;119432;-68
2022/06/26 10:47:51;;;;;;;4.93;2.20;;;;;;;24.42;49.30;101578.97;4902480;28;118977;-68
2022/06/26 10:50:38;;;;;;;6.38;2.35;;;;;;;24.41;49.69;101582.66;4901376;28;124082;-69
2022/06/26 10:53:19;;;;;;;4.78;2.55;;;;;;;24.43;49.90;101564.41;4893173;28;124338;-69
2022/06/26 10:56:02;;;;;;;1.92;1.60;;;;;;;24.43;49.25;101572.53;4899193;28;119632;-69
2022/06/26 10:58:32;;;;;;;3.47;1.80;;;;;;;24.39;49.42;101579.25;4898043;28;118980;-69
2022/06/26 11:01:03;;;;;;;3.10;1.80;;;;;;;24.36;49.29;101590.38;4901415;28;124134;-69
2022/06/26 11:03:32;;;;;;;3.47;1.70;;;;;;;24.32;49.21;101589.78;4899257;28;124580;-69
2022/06/26 11:06:04;;;;;;;3.85;1.73;;;;;;;24.28;49.85;101577.53;4907752;28;119033;-68
2022/06/26 11:08:34;;;;;;;2.63;1.73;;;;;;;24.29;49.86;101579.22;4895764;28;120504;-69
2022/06/26 11:11:14;;;;;;;4.18;1.77;;;;;;;24.31;50.00;101587.22;4906740;28;123100;-68
2022/06/26 11:13:56;;;;;;;3.55;1.92;;;;;;;24.34;50.25;101582.38;4907509;28;123368;-68
2022/06/26 11:16:28;;;;;;;3.47;1.90;;;;;;;24.37;50.47;101578.53;4895423;28;118987;-68
2022/06/26 11:18:57;;;;;;;4.60;2.08;;;;;;;24.38;50.45;101582.97;4895182;28;118690;-69
2022/06/26 11:21:25;;;;;;;5.70;2.42;;;;;;;24.37;50.53;101575.81;4901019;28;124572;-69
2022/06/26 11:23:53;;;;;;;3.63;2.47;;;;;;;24.35;50.51;101577.81;4903939;28;124437;-68
2022/06/26 11:26:21;;;;;;;6.50;3.15;;;;;;;24.34;50.84;101570.72;4900947;28;119296;-68
2022/06/26 11:28:55;;;;;;;5.03;3.03;;;;;;;24.31;50.91;101579.09;4897575;28;118695;-68
2022/06/26 11:31:26;;;;;;;6.97;3.50;;;;;;;24.28;50.81;101572.97;4904908;28;124661;-68
2022/06/26 11:33:54;;;;;;;5.75;4.03;;;;;;;24.26;50.51;101569.56;4894321;28;124368;-68
2022/06/26 11:36:22;;;;;;;6.40;3.63;;;;;;;24.17;50.58;101556.88;4900059;28;118958;-69
2022/06/26 11:38:52;;;;;;;6.18;3.92;;;;;;;24.10;50.42;101553.00;4895044;28;119554;-69
2022/06/26 11:41:24;;;;;;;5.35;3.42;;;;;;;24.02;50.66;101550.16;4894082;28;124552;-68